Latest Weather Observations for Goulburn Airport

IDN60801

Issued at 11:34 am EST Wednesday 1 June 2016 (issued every 30 minutes, with the page automatically refreshed every 10 minutes)

About weather observations | Map of weather stations | Latest weather observations for NSW | Other Formats
Station Details ID: 070330 Name: GOULBURN AIRPORT AWS Lat: -34.81 Lon: 149.73 Height: 640.0 m
Data from the previous 72 hours. | See also: Recent months at Goulburn Airport
Date/Time
EST
Temp
°C
App
Temp
°C
Dew
Point
Rel
Hum
%
Delta-T
°C
Wind Press
QNH
hPa
Press
MSL
hPa
Rain
since 9 am
mm
Dir
 
Spd
km/h
Gust
km/h
Spd
kts
Gust
kts
01/11:30am 10.8 7.4 7.7 81 1.5 E 15 24 8 13 1028.7 1029.7 0.0
01/11:00am 10.5 7.5 7.6 82 1.4 E 13 19 7 10 1029.1 1030.1 0.0
01/10:30am 10.0 6.6 7.6 85 1.2 ESE 15 20 8 11 1029.4 1030.4 0.0
01/10:27am 9.9 6.9 7.5 85 1.2 SE 13 19 7 10 1029.4 1030.4 0.0
01/10:00am 9.2 6.1 7.2 87 1.0 SE 13 17 7 9 1029.5 1030.5 0.0
01/09:30am 8.5 6.1 6.8 89 0.8 SE 9 13 5 7 1029.6 1030.0 0.0
01/09:00am 8.2 5.8 7.0 92 0.6 SE 9 13 5 7 1029.5 1029.8 2.8
01/08:30am 7.8 5.4 6.9 94 0.4 SE 9 11 5 6 1029.5 1029.8 2.8
01/08:00am 7.5 4.7 6.8 95 0.3 SE 11 13 6 7 1029.4 1029.7 2.8
01/07:30am 7.3 4.4 6.6 95 0.3 ESE 11 17 6 9 1029.3 1029.6 2.8
01/07:00am 7.2 4.7 6.5 95 0.3 SE 9 15 5 8 1029.1 1029.4 2.8
01/06:30am 7.2 4.3 6.5 95 0.3 SE 11 13 6 7 1028.8 1029.1 2.8
01/06:00am 7.3 4.1 6.7 96 0.3 SE 13 15 7 8 1028.5 1028.8 2.8
01/05:30am 7.5 3.9 6.9 96 0.3 SE 15 20 8 11 1028.5 1028.8 2.8
01/05:00am 7.5 4.7 6.9 96 0.3 SE 11 15 6 8 1028.3 1028.5 2.8
01/04:30am 7.5 4.7 7.1 97 0.2 SE 11 17 6 9 1028.1 1028.4 2.6
01/04:00am 7.7 5.3 7.1 96 0.3 SE 9 13 5 7 1028.1 1028.4 2.6
01/03:30am 7.8 4.3 7.2 96 0.3 SE 15 19 8 10 1028.1 1028.4 2.6
01/03:00am 7.7 4.2 7.1 96 0.3 SSE 15 19 8 10 1028.4 1028.7 2.6
01/02:30am 8.1 4.7 7.5 96 0.3 SE 15 20 8 11 1028.6 1028.9 2.6
01/02:00am 8.3 5.7 7.9 97 0.2 SE 11 15 6 8 1028.7 1029.0 2.4
01/01:30am 8.3 5.7 7.9 97 0.2 SE 11 13 6 7 1028.9 1029.2 2.4
01/01:00am 7.8 5.0 7.1 95 0.3 SE 11 13 6 7 1029.0 1029.3 2.4
01/12:58am 7.8 5.0 7.1 95 0.3 SE 11 13 6 7 1029.0 1029.3 2.4
01/12:41am 8.3 5.6 7.4 94 0.4 ESE 11 15 6 8 1029.0 1029.3 2.4
01/12:30am 8.4 5.3 7.3 93 0.5 ESE 13 17 7 9 1029.1 1029.4 2.4
01/12:00am 8.5 5.1 7.7 95 0.4 ESE 15 20 8 11 1029.2 1029.5 2.4
 
Date/Time
EST
Temp
°C
App
Temp
°C
Dew
Point
Rel
Hum
%
Delta-T
°C
Wind Press
QNH
hPa
Press
MSL
hPa
Rain
since 9 am
mm
Dir
 
Spd
km/h
Gust
km/h
Spd
kts
Gust
kts
31/11:30pm 8.3 6.0 7.5 95 0.4 ESE 9 13 5 7 1029.5 1029.8 2.4
31/11:00pm 8.3 6.4 7.5 95 0.4 SE 7 11 4 6 1029.6 1030.0 2.4
31/10:30pm 8.4 5.4 7.8 96 0.3 SE 13 17 7 9 1029.6 1030.0 2.4
31/10:00pm 8.4 5.5 8.0 97 0.2 ESE 13 19 7 10 1029.6 1030.0 2.4
31/09:30pm 8.4 5.1 8.0 97 0.2 ESE 15 20 8 11 1029.7 1030.1 2.4
31/09:00pm 8.6 4.9 8.0 96 0.3 ESE 17 22 9 12 1029.6 1030.0 2.2
31/08:30pm 9.0 6.5 8.4 96 0.3 ESE 11 15 6 8 1029.5 1029.8 2.0
31/08:00pm 9.0 6.2 8.4 96 0.3 ESE 13 17 7 9 1029.5 1029.8 2.0
31/07:30pm 9.0 6.5 8.2 95 0.4 ESE 11 15 6 8 1029.4 1029.7 1.8
31/07:00pm 9.1 5.8 8.2 94 0.4 ESE 15 19 8 10 1029.3 1029.6 1.8
31/06:40pm 9.2 6.3 8.3 94 0.5 ESE 13 17 7 9 1029.1 1029.4 1.8
31/06:30pm 9.1 6.2 8.0 93 0.5 ESE 13 19 7 10 1029.0 1029.3 1.8
31/06:20pm 9.1 6.2 8.2 94 0.4 ESE 13 19 7 10 1029.0 1029.3 1.8
31/06:00pm 9.1 6.3 8.5 96 0.3 ESE 13 17 7 9 1028.8 1029.1 1.8
31/05:30pm 9.4 5.9 8.6 95 0.4 SE 17 24 9 13 1028.5 1028.8 1.6
31/05:00pm 9.6 6.1 8.8 95 0.4 ESE 17 24 9 13 1028.4 1028.7 1.4
31/04:39pm 9.6 5.7 8.8 95 0.4 ESE 19 22 10 12 1028.3 1028.5 1.2
31/04:30pm 9.8 6.7 9.0 95 0.4 ESE 15 24 8 13 1028.1 1028.4 0.8
31/04:17pm 9.9 7.2 9.1 95 0.4 ESE 13 19 7 10 1028.1 1028.4 0.4
31/04:00pm 9.8 6.7 8.9 94 0.5 SE 15 20 8 11 1028.1 1028.4 0.2
31/03:30pm 10.5 6.4 8.6 88 1.0 SE 20 28 11 15 1028.1 1028.4 0.0
31/03:21pm 10.5 6.3 8.4 87 1.1 SE 20 28 11 15 1028.1 1028.4 0.0
31/03:00pm 10.6 6.5 8.7 88 1.0 SE 20 24 11 13 1028.0 1028.3 0.0
31/02:54pm 10.7 6.5 8.3 85 1.2 SE 20 28 11 15 1027.9 1028.2 0.0
31/02:40pm 12.4 8.1 7.7 73 2.4 SE 20 26 11 14 1027.8 1028.1 0.0
31/02:30pm 12.5 8.4 7.8 73 2.4 ESE 19 24 10 13 1027.7 1028.0 0.0
31/02:00pm 11.1 7.5 8.3 83 1.4 E 17 22 9 12 1027.8 1028.1 0.0
31/01:30pm 12.3 8.4 7.2 71 2.6 ESE 17 20 9 11 1027.9 1028.2 0.0
31/01:00pm 12.0 8.1 7.1 72 2.4 ESE 17 24 9 13 1028.1 1028.4 0.0
31/12:30pm 11.7 7.3 7.2 74 2.2 SE 20 28 11 15 1028.4 1028.7 0.0
31/12:03pm 12.4 8.6 7.5 72 2.5 SE 17 24 9 13 1028.6 1028.9 0.0
31/12:00pm 12.4 9.0 7.5 72 2.5 SE 15 20 8 11 1028.6 1028.9 0.0
31/11:30am 11.2 8.2 7.9 80 1.7 SE 13 17 7 9 1029.3 1029.6 0.0
31/11:00am 10.5 6.2 7.2 80 1.6 ESE 19 24 10 13 1029.9 1030.2 0.0
31/10:30am 10.4 7.0 7.5 82 1.4 SSE 15 20 8 11 1030.0 1030.3 0.0
31/10:00am 9.1 8.5 7.4 89 0.8 CALM 0 6 0 3 1030.3 1030.6 0.0
31/09:30am 8.3 7.3 7.2 93 0.5 S 2 6 1 3 1030.4 1030.7 0.0
31/09:00am 7.8 5.8 7.1 95 0.3 SSW 7 9 4 5 1030.3 1030.6 0.0
31/08:30am 6.9 5.4 6.8 99 0.0 SSW 4 7 2 4 1030.1 1030.4 0.0
31/08:00am 5.6 4.5 5.3 98 0.1 CALM 0 0 0 0 1029.9 1030.2 0.0
31/07:30am 4.8 3.6 4.5 98 0.1 CALM 0 0 0 0 1029.5 1029.8 0.0
31/07:00am 4.4 3.1 4.1 98 0.1 CALM 0 0 0 0 1029.5 1029.8 0.0
31/06:30am 4.2 1.5 3.9 98 0.1 SSE 7 9 4 5 1029.0 1029.3 0.0
31/06:00am 3.6 2.2 3.3 98 0.1 CALM 0 0 0 0 1028.9 1029.2 0.0
31/05:30am 3.2 1.7 2.9 98 0.1 CALM 0 0 0 0 1028.8 1029.1 0.0
31/05:00am 2.8 1.2 2.5 98 0.1 CALM 0 0 0 0 1028.5 1028.8 0.0
31/04:30am 2.3 0.6 2.0 98 0.1 CALM 0 0 0 0 1028.5 1028.8 0.0
31/04:25am 2.1 0.4 1.8 98 0.1 CALM 0 0 0 0 1028.5 1028.8 0.0
31/04:14am 1.6 -0.2 1.2 97 0.2 CALM 0 0 0 0 1028.4 1028.7 0.0
31/04:00am 1.8 0.0 1.5 98 0.1 CALM 0 0 0 0 1028.3 1028.5 0.0
31/03:30am 2.0 0.3 1.7 98 0.1 CALM 0 0 0 0 1028.3 1028.5 0.0
31/03:00am 1.5 -1.1 1.2 98 0.1 SE 4 9 2 5 1028.4 1028.7 0.0
31/02:58am 1.5 -0.7 1.2 98 0.1 SSE 2 7 1 4 1028.4 1028.7 0.0
31/02:37am 0.7 -1.2 0.4 98 0.1 CALM 0 0 0 0 1028.1 1028.4 0.0
31/02:30am 0.5 -1.5 0.2 98 0.1 CALM 0 0 0 0 1028.3 1028.5 0.0
31/02:00am -0.3 -2.4 -0.6 98 0.1 CALM 0 0 0 0 1028.3 1028.5 0.0
31/01:58am -0.3 -2.4 -0.6 98 0.1 CALM 0 0 0 0 1028.3 1028.5 0.0
31/01:35am -0.3 -2.4 -0.6 98 0.1 CALM 0 0 0 0 1028.3 1028.5 0.0
31/01:30am -0.3 -2.4 -0.6 98 0.1 CALM 0 0 0 0 1028.3 1028.5 0.0
31/01:13am -0.8 -3.0 -1.2 97 0.1 CALM 0 0 0 0 1028.5 1028.8 0.0
31/01:00am -1.4 -3.7 -2.0 96 0.1 CALM 0 0 0 0 1028.5 1028.8 0.0
31/12:35am -1.8 -4.1 -2.5 95 0.2 CALM 0 0 0 0 1028.5 1028.8 0.0
31/12:30am -1.9 -4.2 -2.6 95 0.2 CALM 0 0 0 0 1028.4 1028.7 0.0
31/12:00am -1.8 -4.1 -2.5 95 0.2 CALM 0 0 0 0 1028.4 1028.7 0.0
 
Date/Time
EST
Temp
°C
App
Temp
°C
Dew
Point
Rel
Hum
%
Delta-T
°C
Wind Press
QNH
hPa
Press
MSL
hPa
Rain
since 9 am
mm
Dir
 
Spd
km/h
Gust
km/h
Spd
kts
Gust
kts
30/11:30pm -1.2 -3.4 -1.9 95 0.2 CALM 0 0 0 0 1028.5 1028.8 0.0
30/11:00pm -1.0 -3.2 -1.8 94 0.2 CALM 0 0 0 0 1028.5 1028.8 0.0
30/10:30pm -1.1 -3.3 -1.9 94 0.2 CALM 0 0 0 0 1028.4 1028.7 0.0
30/10:00pm 0.4 -1.6 -0.3 95 0.3 CALM 0 0 0 0 1028.1 1028.4 0.0
30/09:30pm 0.2 -1.9 -0.9 92 0.4 CALM 0 0 0 0 1028.1 1028.4 0.0
30/09:00pm 1.2 -0.8 0.2 93 0.4 CALM 0 0 0 0 1028.0 1028.3 0.0
30/08:30pm 2.0 -1.0 1.1 94 0.4 SSE 6 6 3 3 1027.7 1028.0 0.0
30/08:00pm 2.4 0.6 0.9 90 0.6 CALM 0 0 0 0 1027.5 1027.8 0.0
30/07:30pm 2.0 0.0 -0.2 85 0.8 CALM 0 0 0 0 1027.4 1027.7 0.0
30/07:00pm 4.2 1.2 1.7 84 1.0 ESE 7 9 4 5 1027.2 1027.5 0.0
30/06:30pm 6.0 3.7 3.0 81 1.3 ESE 4 7 2 4 1026.9 1027.1 0.0
30/06:00pm 6.6 3.4 3.0 78 1.6 E 9 13 5 7 1026.4 1026.7 0.0
30/05:30pm 5.9 2.9 1.8 75 1.7 SE 7 9 4 5 1025.9 1026.2 0.0
30/05:00pm 9.2 5.8 2.1 61 3.1 ENE 9 11 5 6 1025.5 1025.7 0.0
30/04:30pm 11.0 7.4 3.1 58 3.6 ENE 11 13 6 7 1025.1 1025.3 0.0
30/04:00pm 11.9 8.3 3.2 55 4.0 ESE 11 19 6 10 1025.0 1025.2 0.0
30/03:30pm 12.1 8.0 2.3 51 4.4 E 13 17 7 9 1024.7 1025.0 0.0
30/03:00pm 12.3 8.0 3.0 53 4.2 SE 15 17 8 9 1024.5 1024.8 0.0
30/02:30pm 12.1 8.9 3.1 54 4.1 ESE 9 17 5 9 1024.4 1024.7 0.0
30/02:00pm 11.9 9.1 2.9 54 4.1 SE 7 13 4 7 1024.3 1024.6 0.0
30/01:30pm 11.7 9.1 4.0 59 3.6 NNE 7 11 4 6 1024.4 1024.7 0.0
30/01:00pm 10.7 7.2 3.5 61 3.3 SSE 11 17 6 9 1024.6 1024.9 0.0
30/12:30pm 9.3 6.3 1.9 60 3.2 SSE 7 11 4 6 1025.0 1025.2 0.0
30/12:00pm 8.4 6.1 2.6 67 2.5 SSW 4 7 2 4 1025.3 1025.5 0.0
30/11:30am 7.1 4.6 3.5 78 1.6 NW 6 9 3 5 1025.8 1026.1 0.0
30/11:20am 5.8 3.0 3.3 84 1.1 NNW 7 11 4 6 1026.0 1026.3 0.0
30/11:00am 4.5 1.9 4.4 99 0.0 NW 7 9 4 5 1026.2 1026.5 0.0
30/10:30am 2.1 -0.9 2.0 99 0.0 NW 7 11 4 6 1026.4 1026.7 0.0
30/10:00am 1.5 -2.0 1.4 99 0.0 WNW 9 13 5 7 1026.6 1026.8 0.0
30/09:30am 1.0 -2.9 0.9 99 0.0 N 11 13 6 7 1026.3 1026.6 0.0
30/09:00am 0.4 -4.0 0.3 99 0.0 NNW 13 15 7 8 1026.1 1026.4 0.0
30/08:30am 0.2 -3.9 0.1 99 0.0 N 11 15 6 8 1025.8 1026.1 0.0
30/08:00am -0.5 -4.3 -0.8 98 0.1 N 9 13 5 7 1025.5 1025.7 0.0
30/07:30am -1.7 -4.3 -2.0 98 0.0 NNE 2 7 1 4 1025.1 1025.3 0.0
30/07:00am -3.0 -5.4 -3.4 97 0.0 CALM 0 0 0 0 1024.6 1024.9 0.0
30/06:30am -4.2 -7.2 -4.7 96 0.0 ESE 2 6 1 3 1024.3 1024.6 0.0
30/06:17am -4.6 -8.4 -5.3 95 0.0 ESE 6 9 3 5 1024.2 1024.4 0.0
30/06:00am -5.1 -9.0 -6.1 93 0.1 ESE 6 9 3 5 1023.9 1024.1 0.0
30/05:30am -4.5 -7.2 -5.6 92 0.2 CALM 0 0 0 0 1023.7 1023.9 0.0
30/05:00am -3.2 -5.7 -3.9 95 0.1 CALM 0 0 0 0 1023.5 1023.7 0.0
30/04:30am -4.3 -8.3 -5.4 92 0.2 N 7 11 4 6 1023.1 1023.4 0.0
30/04:00am -3.4 -7.3 -4.2 94 0.1 N 7 9 4 5 1022.9 1023.1 0.0
30/03:30am -3.3 -6.6 -4.1 94 0.1 NW 4 7 2 4 1022.6 1022.8 0.0
30/03:00am -3.0 -5.5 -3.7 95 0.1 CALM 0 0 0 0 1022.7 1022.9 0.0
30/02:30am -2.7 -5.1 -3.4 95 0.1 CALM 0 0 0 0 1022.6 1022.8 0.0
30/02:00am -2.7 -5.1 -3.4 95 0.1 CALM 0 0 0 0 1022.6 1022.8 0.0
30/01:30am -2.5 -4.9 -3.3 94 0.2 CALM 0 0 0 0 1022.5 1022.7 0.0
30/01:00am -2.5 -5.0 -3.8 91 0.3 CALM 0 0 0 0 1022.3 1022.5 0.0
30/12:30am -2.0 -4.4 -3.0 93 0.3 CALM 0 0 0 0 1022.3 1022.5 0.0
30/12:00am -1.5 -5.0 -2.9 90 0.4 NNW 6 7 3 4 1022.2 1022.4 0.0
 
Date/Time
EST
Temp
°C
App
Temp
°C
Dew
Point
Rel
Hum
%
Delta-T
°C
Wind Press
QNH
hPa
Press
MSL
hPa
Rain
since 9 am
mm
Dir
 
Spd
km/h
Gust
km/h
Spd
kts
Gust
kts
29/11:30pm -0.3 -2.4 -1.1 94 0.3 CALM 0 0 0 0 1022.2 1022.4 0.0
29/11:00pm -0.6 -2.9 -2.2 89 0.5 CALM 0 0 0 0 1022.2 1022.4 0.0
29/10:30pm 1.1 -2.3 -0.4 90 0.6 E 7 11 4 6 1022.2 1022.4 0.0
29/10:00pm 2.5 -0.7 0.6 87 0.7 NNE 7 11 4 6 1022.0 1022.2 0.0
29/09:30pm 2.0 -2.4 0.2 88 0.7 NNW 13 17 7 9 1021.8 1022.0 0.0
29/09:00pm 3.1 -1.7 0.3 82 1.1 N 15 20 8 11 1021.8 1022.0 0.0
29/08:30pm 4.0 -1.4 1.0 81 1.2 WNW 19 30 10 16 1021.4 1021.6 0.0
29/08:00pm 4.5 1.0 1.0 78 1.4 NNW 9 17 5 9 1021.3 1021.5 0.0
29/07:30pm 4.7 -0.3 1.2 78 1.4 WNW 17 26 9 14 1020.8 1021.0 0.0
29/07:00pm 4.5 1.9 1.2 79 1.3 W 4 13 2 7 1020.3 1020.4 0.0
29/06:30pm 4.9 -1.4 1.4 78 1.4 WNW 24 33 13 18 1019.7 1019.9 0.0
29/06:00pm 5.5 -0.8 1.4 75 1.7 W 24 33 13 18 1019.3 1019.5 0.0
29/05:30pm 6.1 -1.7 1.8 74 1.8 WNW 32 39 17 21 1018.7 1018.8 0.0
29/05:00pm 6.7 -2.1 1.6 70 2.1 WNW 37 48 20 26 1018.3 1018.4 0.0
29/04:30pm 7.5 -2.0 1.8 67 2.4 WNW 41 52 22 28 1017.8 1018.0 0.0
29/04:00pm 8.5 -0.6 2.1 64 2.8 WNW 39 48 21 26 1017.5 1017.6 0.0
29/03:30pm 9.1 -0.3 2.4 63 2.9 WNW 41 50 22 27 1017.4 1017.5 0.0
29/03:00pm 9.2 -1.2 2.1 61 3.1 WNW 46 56 25 30 1017.2 1017.3 0.0
29/02:30pm 9.6 -0.4 2.0 59 3.3 W 44 57 24 31 1017.1 1017.2 0.0
29/02:00pm 9.9 -0.4 2.7 61 3.2 WNW 46 57 25 31 1016.9 1017.0 0.0
29/01:30pm 9.7 0.3 2.6 61 3.1 W 41 50 22 27 1016.8 1016.9 0.0
29/01:00pm 9.2 -0.7 2.5 63 2.9 W 44 54 24 29 1016.9 1017.0 0.0
29/12:30pm 8.8 -0.5 3.2 68 2.5 W 41 50 22 27 1016.9 1017.0 0.0
29/12:00pm 8.6 -1.0 3.2 69 2.4 W 43 56 23 30 1017.0 1017.1 0.0

Other Formats:

Comma delimited format used in spreadsheet applications
http://www.bom.gov.au/fwo/IDN60801/IDN60801.95716.axf

JavaScript Object Notation format (JSON) in row-major order
http://www.bom.gov.au/fwo/IDN60801/IDN60801.95716.json